Weather observations for the past three days for
Joliet Regional Airport
Imperial (Metric)
Date Time (cdt) Wind (mph) Vis. (mi.) Weather Sky Cond. Temperature (ºF) Relative Humidity Wind Chill (°F) Heat Index (°F) Pressure Precipitation (in)
Air Dwpt 6 hour altimeter (in) sea level (mb) 1 hr 3 hr 6 hr
Max. Min.
01 21:55 Calm 10.00 Fair CLR 81.5 74.5 79% 87 29.97 0.0
01 21:35 Calm 10.00 Fair CLR 81.7 74.7 79% 88 29.97 0.0
01 21:15 Calm 10.00 Fair CLR 82 75.4 80% 89 29.97 0.0
01 20:55 SW 3 10.00 Fair CLR 82.9 75.9 79% 91 29.97 0.0
01 20:35 SW 3 10.00 Fair CLR 83.3 75.2 77% 91 29.96 0.0
01 20:15 SW 3 10.00 Fair CLR 84.9 74.8 72% 93 29.95 0.0
01 19:55 SW 5 10.00 Fair CLR 84.4 75.4 74% 93 29.95 0.0
01 19:35 SW 3 10.00 Fair CLR 85.8 75.6 72% 95 29.94 0.0
01 19:15 SW 3 10.00 Fair CLR 88.9 75.2 64% 99 29.95 0.0
01 18:55 SW 5 10.00 Fair CLR 89.8 75.6 94.5 89.8 63% 101 29.95 0.0
01 18:35 SW 5 10.00 Fair CLR 91.2 75.6 60% 103 29.95 0.0
01 18:15 SW 6 10.00 Fair CLR 92.3 75.6 58% 104 29.95 0.0
01 17:55 SW 5 10.00 Fair CLR 92.7 75 57% 104 29.95 0.0
01 17:35 SW 5 10.00 Fair CLR 92.7 74.7 56% 104 29.95 0.0
01 17:15 SW 5 10.00 Fair CLR 93.2 75.2 56% 105 29.95 0.0
01 16:55 SW 5 10.00 Partly Cloudy SCT095 93.4 75.6 56% 106 29.95 0.0
01 16:35 SW 5 10.00 Mostly Cloudy BKN095 93.6 76.1 57% 107 29.95 0.0
01 16:15 SW 7 10.00 Partly Cloudy SCT095 93.7 75.4 55% 106 29.95 0.0
01 15:55 SW 5 10.00 Mostly Cloudy BKN095 93.7 76.6 58% 108 29.95 0.0
01 15:35 SW 6 10.00 Partly Cloudy SCT095 94.1 76.8 57% 108 29.96 0.0
01 15:15 W 7 10.00 Fair CLR 93.9 77.2 58% 109 29.96 0.0
01 14:55 SW 8 10.00 Fair CLR 93.9 77.2 58% 109 29.96 0.0
01 14:35 SW 6 10.00 Fair CLR 93.6 78.4 62% 110 29.97 0.0
01 14:15 Calm 10.00 Fair CLR 93 77.7 61% 108 29.97 0.0
01 13:55 SW 8 10.00 Fair CLR 92.5 77.7 62% 108 29.97 0.0
01 13:35 SW 6 10.00 Fair CLR 91.9 78.1 64% 107 29.98 0.0
01 13:15 SW 6 10.00 Fair CLR 91.6 77.5 64% 106 29.98 0.0
01 12:55 SW 7 10.00 Fair CLR 90.9 78.1 91.2 74.7 66% 106 29.98 0.0
01 12:35 SW 3 10.00 Partly Cloudy SCT120 90 77.9 68% 104 29.99 0.0
01 12:15 SW 6 10.00 Partly Cloudy SCT120 89.4 77.7 69% 103 29.99 0.0
01 11:55 S 7 10.00 Partly Cloudy SCT120 88.2 77.7 71% 101 29.99 0.0
01 11:35 SW 5 10.00 Partly Cloudy SCT120 87.8 77.9 73% 101 29.99 0.0
01 11:15 SW 5 10.00 Partly Cloudy SCT120 86.5 77 73% 98 30 0.0
01 10:55 SW 5 10.00 Fair CLR 86 76.6 74% 97 30 0.0
01 10:35 SW 7 10.00 Fair CLR 84.6 75.7 75% 94 29.99 0.0
01 10:15 SW 6 10.00 Fair CLR 84 75 74% 92 29.99 0.0
01 09:55 Calm 10.00 Partly Cloudy SCT120 83.3 75 76% 91 29.99 0.0
01 09:35 SW 3 10.00 Partly Cloudy SCT120 82.2 75.4 80% 89 29.99 0.0
01 09:15 SW 3 10.00 Fair CLR 80.8 75.2 83% 87 29.99 0.0
01 08:55 Calm 10.00 Fair CLR 79.5 76.1 89% 84 29.99 0.0
01 08:35 Calm 10.00 Fair CLR 77.9 75.6 93% 80 29.99 0.0
01 08:15 Calm 10.00 Fair CLR 76.6 75.2 95% 77 30 0.0
01 07:55 Calm 10.00 Partly Cloudy SCT120 75.4 74.5 97% 74 30 0.0
01 07:35 SW 3 10.00 Partly Cloudy SCT120 75.2 74.5 98% 73 29.99 0.0
01 07:15 Calm 10.00 Fair CLR 75.2 74.3 97% 73 29.99 0.0
01 06:55 SW 3 10.00 Fair CLR 74.7 74.3 79 74.7 99% 29.98 0.0 0.02 0.12
01 06:35 Calm 7.00 Partly Cloudy SCT120 74.7 74.3 99% 29.98 0.0 0.02
01 06:15 S 3 7.00 Heavy Rain SCT050 SCT070 BKN120 74.8 74.5 99% 29.97 0.0 0.01
01 05:55 Calm 7.00 Light Rain SCT050 SCT070 BKN110 74.8 74.7 99% 29.97 0.0 0.09
01 05:35 S 3 5.00 Rain SCT035 SCT050 BKN110 75.2 74.7 98% 73 29.96 0.0 0.06
01 05:15 Calm 3.00 Light Rain SCT036 SCT050 BKN120 74.8 74.8 100% 29.97 0.0 0.02
01 04:55 Calm 7.00 Light Rain SCT060 SCT075 SCT085 75 74.7 99% 72 29.97 0.0 0.01
01 04:35 Calm 10.00 Light Rain SCT110 76.5 74.1 93% 77 29.97 0.0
01 04:15 Calm 10.00 Fair CLR 77.2 73.2 88% 79 29.96 0.0
01 03:55 Calm 10.00 Light Rain CLR 76.3 73.6 91% 76 29.96 0.0
01 03:35 Calm 10.00 Partly Cloudy SCT090 SCT120 77 73.4 89% 78 29.96 0.0
01 03:15 Calm 10.00 Partly Cloudy SCT100 SCT120 78.3 72.7 83% 81 29.96 0.0
01 02:55 SW 3 10.00 Fair CLR 78.1 72.7 84% 81 29.95 0.0
01 02:35 SW 3 10.00 Fair CLR 78.3 72.7 83% 81 29.95 0.0
01 02:15 SW 5 10.00 Fair CLR 78.4 72.7 83% 81 29.95 0.0
01 01:55 SW 6 10.00 Fair CLR 78.4 72.7 83% 81 29.95 0.0
01 01:35 SW 5 10.00 Fair CLR 78.8 72.7 82% 82 29.95 0.0
01 01:15 SW 6 10.00 Fair CLR 77.9 73.4 86% 80 29.94 0.0
01 00:55 SW 5 10.00 Fair CLR 77.9 73.6 80.4 75.2 87% 80 29.95 0.0 0.05
01 00:35 SW 3 10.00 Fair CLR 77.5 74.1 89% 79 29.95 0.0
01 00:15 SW 3 10.00 Fair CLR 76.3 75.4 97% 76 29.95 0.0
31 23:55 Calm 10.00 Fair CLR 75.4 75.4 100% 73 29.95 0.0
31 23:35 Calm 10.00 Fair CLR 75.6 75.2 99% 74 29.95 0.0
31 23:15 Calm 10.00 Fair CLR 76.8 75.9 97% 77 29.95 0.0
31 22:55 Calm 10.00 Fair CLR 78.8 75.7 90% 82 29.95 0.0
31 22:35 Calm 10.00 Fair CLR 79 75.7 90% 83 29.95 0.0
31 22:15 S 3 10.00 Fair CLR 78.4 76.5 94% 82 29.95 0.0
31 21:55 S 3 10.00 Fair CLR 77.5 77 98% 79 29.95 0.0 0.05
31 21:35 Calm 10.00 Partly Cloudy SCT120 79.9 77.5 93% 86 29.96 0.0
31 21:15 S 3 10.00 Partly Cloudy SCT120 78.6 78.3 99% 82 29.96 0.0
31 20:55 Calm 10.00 Fair CLR 79 78.3 98% 84 29.96 0.0
31 20:35 Calm 10.00 Partly Cloudy SCT120 79.3 78.8 98% 85 29.95 0.0
31 20:15 Calm 10.00 Partly Cloudy SCT120 80.1 78.6 95% 87 29.94 0.0
31 19:55 Calm 10.00 Partly Cloudy SCT120 79.9 78.1 94% 86 29.94 0.0 0.05
31 19:35 S 5 10.00 Partly Cloudy SCT120 79.7 77.4 93% 85 29.94 0.0 0.05
31 19:15 S 7 10.00 Light Rain SCT021 SCT031 SCT039 77.9 76.3 95% 80 29.94 0.0 0.05
31 18:35 W 5 10.00 Overcast OVC110 88.7 74.3 63% 98 29.96 0.0
31 18:15 SW 3 10.00 Mostly Cloudy BKN110 88.3 74.5 64% 98 29.94 0.0
31 17:55 S 3 10.00 Overcast SCT037 SCT050 OVC110 89.6 73.6 59% 98 29.93 0.0
31 17:35 SW 5 10.00 Partly Cloudy SCT110 90.5 72.7 56% 99 29.94 0.0
31 17:15 SW 7 10.00 Fair CLR 91.4 72.3 54% 99 29.92 0.0
31 16:55 SW 9 10.00 Fair CLR 91.9 72.5 53% 100 29.92 0.0
31 16:35 SW 10 10.00 Fair CLR 92.5 71.6 51% 100 29.92 0.0
31 16:15 SW 8 10.00 Fair CLR 92.8 71.2 49% 100 29.93 0.0
31 15:55 W 7 G 16 10.00 Fair CLR 93.4 71.1 48% 100 29.93 0.0
31 15:35 W 10 G 16 10.00 Partly Cloudy SCT120 93.6 70.7 47% 100 29.93 0.0
31 15:15 SW 10 10.00 Partly Cloudy SCT120 92.8 70.9 49% 100 29.92 0.0
31 14:55 SW 10 G 16 10.00 Partly Cloudy SCT120 92.5 71.8 51% 100 29.93 0.0
31 14:35 SW 12 G 16 10.00 Partly Cloudy SCT120 91.6 72 53% 99 29.93 0.0
31 14:15 S 10 G 17 10.00 Partly Cloudy SCT120 91 72.1 54% 99 29.93 0.0
31 13:55 S 12 G 16 10.00 Fair CLR 90.5 71.4 54% 97 29.94 0.0
31 13:35 SW 10 G 17 10.00 Fair CLR 89.2 70.5 54% 95 29.94 0.0
31 13:15 S 8 G 18 10.00 Fair CLR 88.2 70.7 56% 94 29.94 0.0
31 12:55 S 9 G 18 10.00 Fair CLR 86.9 70.2 86.9 72.7 58% 92 29.95 0.0 0.02
31 12:35 S 7 10.00 Fair CLR 83.8 70.9 65% 89 29.96 0.0
31 12:15 S 7 10.00 Mostly Cloudy BKN110 83.5 71.6 68% 89 29.98 0.0
31 11:55 S 7 10.00 Overcast OVC100 80.8 70.7 72% 84 29.99 0.0
31 11:35 S 6 10.00 Overcast OVC100 78.4 70 75% 81 29.99 0.0
31 11:15 SE 5 10.00 Overcast OVC100 77.2 69.8 78% 79 29.99 0.0
31 10:55 SE 5 10.00 Overcast SCT085 OVC100 76.1 69.8 81% 77 30 0.0
31 10:35 S 3 10.00 Overcast OVC100 76.1 71.1 84% 77 30 0.0
31 10:15 SE 3 10.00 Overcast OVC100 75.2 70.7 86% 75 30 0.0
31 09:55 SE 7 10.00 Light Rain SCT055 SCT080 OVC100 73.2 70 90% 30 0.0 0.02 0.02
31 09:35 SE 6 10.00 Overcast SCT045 SCT060 OVC100 73 70 90% 30 0.0 0.02
31 09:15 SE 7 3.00 Light Rain SCT045 SCT080 OVC100 73.6 68.7 85% 30 0.0 0.01
31 08:55 Calm 10.00 Overcast OVC110 74.8 67.6 78% 30 0.0
31 08:35 SE 5 10.00 Overcast OVC100 74.1 68.2 82% 30 0.0
31 08:15 Calm 10.00 Overcast OVC110 75.2 67.3 77% 76 30 0.0
31 07:55 S 3 10.00 Overcast OVC110 74.8 66 74% 29.98 0.0
31 07:35 S 6 10.00 Overcast OVC110 74.1 66 76% 29.98 0.0
31 07:15 S 5 10.00 Mostly Cloudy SCT065 SCT090 BKN110 73.8 66.2 77% 29.97 0.0
31 06:55 S 3 10.00 Partly Cloudy SCT065 SCT090 SCT120 73.4 66.6 76.6 72.9 79% 29.97 0.0
31 06:35 S 5 10.00 Partly Cloudy SCT060 SCT070 SCT085 72.9 67.1 82% 29.97 0.0
31 06:15 Calm 10.00 Light Rain SCT048 SCT060 BKN110 75 65.5 72% 76 29.97 0.0
31 05:55 SW 5 10.00 Fair CLR 75 64.9 71% 77 29.96 0.0
31 05:35 S 6 10.00 Fair CLR 74.7 64.8 71% 29.96 0.0
31 05:15 SW 5 10.00 Fair CLR 75.4 64.4 69% 77 29.96 0.0
31 04:55 S 5 10.00 Fair CLR 75.4 64.4 69% 77 29.96 0.0
31 04:35 S 5 10.00 Fair CLR 75.4 64.8 70% 77 29.96 0.0
31 04:15 S 5 10.00 Fair CLR 75.6 64.9 70% 77 29.96 0.0
31 03:55 S 6 10.00 Fair CLR 75.6 65.3 71% 77 29.96 0.0
31 03:35 S 3 10.00 Fair CLR 75.7 65.8 71% 77 29.96 0.0
31 03:15 S 5 10.00 Fair CLR 75.6 66.9 75% 77 29.96 0.0
31 02:55 S 3 10.00 Fair CLR 75.2 68.2 79% 76 29.96 0.0
31 02:35 S 3 10.00 Fair CLR 75.2 68.5 80% 76 29.96 0.0
31 02:15 S 3 10.00 Fair CLR 75.6 68.7 79% 76 29.97 0.0
31 01:55 SW 5 10.00 Fair CLR 76.3 68.7 78% 78 29.97 0.0
31 01:35 S 7 10.00 Fair CLR 76.6 68.9 77% 78 29.97 0.0
31 01:15 SW 7 10.00 Fair CLR 76.1 69.4 80% 77 29.97 0.0
31 00:55 S 5 10.00 Fair CLR 75.2 70.5 77 73.9 85% 75 29.97 0.0
31 00:35 S 5 10.00 Fair CLR 75.4 70.5 85% 76 29.97 0.0
31 00:15 S 3 10.00 Fair CLR 75.4 70.9 86% 75 29.97 0.0
30 23:55 S 5 10.00 Fair CLR 76.1 70.9 84% 77 29.97 0.0
30 23:35 Calm 10.00 Fair CLR 76.5 71.2 84% 77 29.98 0.0
30 23:15 S 3 10.00 Fair CLR 76.1 72.7 89% 76 29.98 0.0
30 22:55 Calm 10.00 Fair CLR 76.3 73 90% 77 29.99 0.0
30 22:35 S 5 10.00 Fair CLR 75.2 74.3 97% 73 29.99 0.0
30 22:15 S 5 10.00 Fair CLR 74.7 74.7 100% 30 0.0
30 21:55 Calm 7.00 Partly Cloudy SCT090 SCT110 73.9 73.9 100% 30 0.0
30 21:35 Calm 10.00 Partly Cloudy SCT090 SCT120 74.7 74.7 100% 30.01 0.0
30 21:15 Calm 2.50 Light Rain SCT070 SCT080 SCT100 74.7 74.5 99% 30.01 0.0
30 20:55 Calm 10.00 Rain SCT070 SCT075 BKN110 75 75 100% 72 29.99 0.0
30 20:35 Calm 10.00 Light Rain SCT070 SCT090 BKN110 75.7 75 98% 74 30.01 0.0
30 20:15 Calm 10.00 Fair CLR 75.4 74.8 98% 73 29.99 0.0
30 19:55 Calm 10.00 Fair CLR 76.3 74.7 95% 76 29.99 0.0
30 19:35 SE 3 10.00 Partly Cloudy SCT120 75.2 75 99% 73 29.98 0.0
30 19:15 Calm 10.00 Partly Cloudy SCT120 75.7 75 98% 74 30 0.0
30 18:55 Calm 10.00 Partly Cloudy SCT120 77 74.5 81.5 76.1 92% 78 30 0.0
30 18:35 S 5 10.00 Light Drizzle SCT041 SCT065 BKN120 76.5 74.8 95% 77 29.99 0.0
30 18:15 Calm 7.00 Rain SCT085 OVC110 76.6 75.7 97% 77 30.01 0.0
30 17:55 Calm 10.00 Light Rain SCT075 SCT090 OVC110 77 75.4 95% 78 30.02 0.0
30 17:35 Calm 10.00 Rain SCT050 SCT080 BKN100 79 73.4 83% 82 30.02 0.0
30 17:15 Calm 10.00 Fair CLR 78.8 72.5 81% 82 30.01 0.0
30 16:55 Calm 10.00 Fair CLR 79 72.5 81% 82 30 0.0
30 16:35 Calm 10.00 Partly Cloudy SCT090 SCT120 79.7 72.3 78% 83 30 0.0
30 16:15 Calm 10.00 Partly Cloudy SCT110 79.9 72 77% 84 30.01 0.0
30 15:55 Calm 10.00 Fair CLR 81.3 71.8 73% 86 30.02 0.0
30 15:35 S 5 10.00 Partly Cloudy SCT110 80.1 72.1 77% 84 30.01 0.0
30 15:15 Calm 10.00 Mostly Cloudy BKN110 79.3 70.5 75% 82 30.02 0.0
30 14:55 SW 5 10.00 Partly Cloudy SCT120 79.2 70.2 74% 82 30.02 0.0
30 14:35 S 7 10.00 Mostly Cloudy BKN110 79.5 71.1 75% 83 30.01 0.0
30 14:15 S 3 10.00 Overcast OVC110 78.3 69.6 75% 81 30 0.0
30 13:55 SW 6 10.00 Mostly Cloudy BKN110 79.5 69.3 71% 82 30.01 0.0
30 13:35 SW 7 10.00 Partly Cloudy SCT120 81.1 70.3 70% 85 29.99 0.0
30 13:15 SW 7 G 18 10.00 Fair CLR 80.8 69.8 69% 84 29.99 0.0
30 12:55 S 9 10.00 Fair CLR 79.5 70.5 79.5 68.9 74% 83 29.99 0.0 0.01
30 12:35 SW 9 10.00 Fair CLR 77.9 70.2 77% 80 29.99 0.0
30 12:15 S 10 10.00 Partly Cloudy SCT033 SCT120 74.8 70 85% 29.99 0.0
30 11:55 S 10 10.00 Drizzle SCT032 SCT047 OVC120 74.1 70 87% 30 0.0
30 11:35 SW 8 10.00 Light Rain SCT030 SCT039 OVC110 74.3 69.3 84% 30.02 0.0
30 11:15 SW 10 10.00 Overcast OVC110 74.3 68.7 83% 30.01 0.0
30 10:55 SW 7 10.00 Partly Cloudy SCT110 72.9 68.2 85% 30 0.0
30 10:35 S 8 10.00 Partly Cloudy SCT070 SCT085 SCT110 71.8 68.4 89% 29.99 0.0
30 10:15 S 10 10.00 Light Rain SCT050 SCT070 BKN120 71.1 68.7 92% 29.99 0.0
30 09:55 S 9 10.00 Mostly Cloudy BKN110 71.6 68.9 91% 30.01 0.0 0.01 0.01
30 09:35 SW 5 10.00 Mostly Cloudy BKN110 71.6 68.5 90% 30.02 0.0 0.01
30 09:15 S 6 10.00 Light Rain OVC110 69.8 68.4 95% 30.01 0.0 0.01
30 08:55 S 7 7.00 Light Rain SCT090 BKN110 69.8 68.5 96% 30.02 0.0
30 08:35 S 8 10.00 Light Rain SCT065 SCT080 BKN110 69.4 68.5 97% 30.03 0.0
30 08:15 S 5 3.00 Rain BKN110 69.4 68.2 96% 30.05 0.0
30 07:55 S 3 10.00 Light Rain SCT070 SCT090 SCT120 69.1 68 96% 30.06 0.0
30 07:35 Calm 10.00 Light Drizzle SCT070 SCT095 SCT120 69.8 67.5 92% 30.06 0.0
30 07:15 Calm 10.00 Partly Cloudy SCT070 SCT095 SCT120 70.3 67.1 90% 30.06 0.0
30 06:55 Calm 10.00 Light Drizzle OVC110 70.3 66.7 73.4 70.2 88% 30.03 0.0
30 06:35 S 5 10.00 Light Rain OVC120 70.7 66.2 86% 30.02 0.0
30 06:15 S 6 10.00 Mostly Cloudy BKN110 70.2 66.6 88% 30 0.0
30 05:55 S 6 10.00 Light Rain OVC110 71.4 65.7 82% 30 0.0
30 05:35 S 9 10.00 Light Rain SCT070 SCT090 BKN120 72.9 64.4 75% 29.99 0.0
30 05:15 S 6 10.00 Partly Cloudy SCT075 SCT090 SCT110 72.5 63.9 74% 29.99 0.0
30 04:55 S 5 10.00 Partly Cloudy SCT110 72 63.9 76% 29.99 0.0
30 04:35 S 5 10.00 Partly Cloudy SCT110 72 63.7 75% 29.99 0.0
30 04:15 S 3 10.00 Fair CLR 72.3 63.3 73% 29.99 0.0
30 03:55 S 3 10.00 Fair CLR 71.8 62.8 73% 30 0.0
30 03:35 S 3 10.00 Fair CLR 71.2 62.6 74% 29.99 0.0
30 03:15 S 5 10.00 Fair CLR 71.6 62.1 72% 30 0.0
30 02:55 S 3 10.00 Fair CLR 71.8 61.7 71% 30 0.0
30 02:35 S 6 10.00 Fair CLR 72.1 61.5 69% 30 0.0
30 02:15 S 5 10.00 Fair CLR 72.5 61.2 68% 30.01 0.0
30 01:55 S 6 10.00 Fair CLR 72.5 61.2 68% 30.01 0.0
30 01:35 S 6 10.00 Fair CLR 72.5 61.7 69% 30.01 0.0
30 01:15 S 9 10.00 Fair CLR 72.7 61.9 69% 30.02 0.0
30 00:55 S 9 10.00 Fair CLR 73 62.4 75.6 72.5 69% 30.02 0.0
30 00:35 S 9 10.00 Fair CLR 73 62.6 70% 30.02 0.0
30 00:15 S 7 10.00 Fair CLR 72.7 62.6 71% 30.02 0.0
29 23:55 S 8 10.00 Fair CLR 73 62.6 70% 30.03 0.0
29 23:35 S 6 10.00 Fair CLR 72.7 63.5 73% 30.03 0.0
29 23:15 S 7 10.00 Fair CLR 72.9 63.7 73% 30.04 0.0
29 22:55 S 7 10.00 Fair CLR 72.9 64.4 75% 30.04 0.0
29 22:35 S 7 10.00 Fair CLR 72.7 64.8 76% 30.04 0.0
Date Time (cdt) Wind (mph) Vis. (mi.) Weather Sky Cond. Air Dwpt Max. Min. Relative Humidity Wind Chill (°F) Heat Index (°F) altimeter (in) sea level (mb) 1 hr 3 hr 6 hr
6 hour
Temperature (ºF) Pressure Precipitation (in)